Time,TemperatureF,DewpointF,PressureIn,WindDirection,WindDirectionDegrees,WindSpeedMPH,WindSpeedGustMPH,Humidity,HourlyPrecipIn,Conditions,Clouds,dailyrainin,SoftwareType,DateUTC
2013-01-29 00:04:00,38.9,37.6,29.83,South,173,4.0,4.0,95,0.00,,,0.00,Wunderground v.1.15,2013-01-29 06:04:00,
2013-01-29 00:09:00,39.2,37.9,29.83,SE,143,4.0,4.0,95,0.00,,,0.00,Wunderground v.1.15,2013-01-29 06:09:00,
2013-01-29 00:15:00,39.6,38.3,29.84,SSE,161,4.0,4.0,95,0.00,,,0.00,Wunderground v.1.15,2013-01-29 06:15:00,
2013-01-29 00:20:00,39.9,38.6,29.84,SSE,157,3.0,3.0,95,0.00,,,0.01,Wunderground v.1.15,2013-01-29 06:20:00,
2013-01-29 00:29:00,40.1,38.8,29.84,SE,138,4.0,4.0,95,0.11,,,0.03,Wunderground v.1.15,2013-01-29 06:29:00,
2013-01-29 00:34:00,39.9,38.6,29.83,SSE,155,4.0,7.0,95,0.07,,,0.04,Wunderground v.1.15,2013-01-29 06:34:00,
2013-01-29 00:39:00,40.1,38.8,29.83,SE,142,5.0,9.0,95,0.14,,,0.05,Wunderground v.1.15,2013-01-29 06:39:00,
2013-01-29 00:44:00,40.2,38.9,29.83,SE,141,5.0,9.0,95,0.09,,,0.05,Wunderground v.1.15,2013-01-29 06:44:00,
2013-01-29 00:49:00,40.9,39.6,29.81,South,171,5.0,6.0,95,0.05,,,0.05,Wunderground v.1.15,2013-01-29 06:49:00,
2013-01-29 00:54:00,41.1,39.8,29.81,SE,145,5.0,8.0,95,0.05,,,0.06,Wunderground v.1.15,2013-01-29 06:54:00,
2013-01-29 00:59:00,41.2,39.9,29.79,SE,146,6.0,6.0,95,0.05,,,0.06,Wunderground v.1.15,2013-01-29 06:59:00,
2013-01-29 01:05:00,41.6,40.3,29.79,SSE,158,6.0,6.0,95,0.05,,,0.07,Wunderground v.1.15,2013-01-29 07:05:00,
2013-01-29 01:09:00,41.9,40.6,29.79,South,184,7.0,7.0,95,0.05,,,0.07,Wunderground v.1.15,2013-01-29 07:09:00,
2013-01-29 01:14:00,42.1,40.8,29.79,South,171,7.0,7.0,95,0.07,,,0.08,Wunderground v.1.15,2013-01-29 07:14:00,
2013-01-29 01:19:00,42.1,40.8,29.78,SSE,167,6.0,9.0,95,0.07,,,0.08,Wunderground v.1.15,2013-01-29 07:19:00,
2013-01-29 01:24:00,42.5,41.4,29.78,South,182,4.0,9.0,96,0.05,,,0.08,Wunderground v.1.15,2013-01-29 07:24:00,
2013-01-29 01:29:00,43.5,42.4,29.78,South,174,3.0,4.0,96,0.00,,,0.08,Wunderground v.1.15,2013-01-29 07:29:00,
2013-01-29 01:34:00,44.1,43.0,29.76,South,171,3.0,5.0,96,0.00,,,0.08,Wunderground v.1.15,2013-01-29 07:34:00,
2013-01-29 01:39:00,44.9,43.8,29.76,SSE,168,3.0,3.0,96,0.00,,,0.08,Wunderground v.1.15,2013-01-29 07:39:00,
2013-01-29 01:44:00,46.5,45.4,29.75,SSE,163,3.0,5.0,96,0.00,,,0.08,Wunderground v.1.15,2013-01-29 07:44:00,
2013-01-29 01:49:00,47.4,46.6,29.75,South,180,4.0,4.0,97,0.00,,,0.08,Wunderground v.1.15,2013-01-29 07:49:00,
2013-01-29 01:54:00,47.9,47.1,29.75,SSW,194,5.0,5.0,97,0.00,,,0.08,Wunderground v.1.15,2013-01-29 07:54:00,
2013-01-29 01:59:00,47.9,47.1,29.75,South,187,5.0,5.0,97,0.00,,,0.08,Wunderground v.1.15,2013-01-29 07:59:00,
2013-01-29 02:04:00,47.9,46.8,29.75,SSE,159,5.0,6.0,96,0.00,,,0.08,Wunderground v.1.15,2013-01-29 08:04:00,
2013-01-29 02:09:00,47.7,46.6,29.75,SSE,150,5.0,5.0,96,0.00,,,0.08,Wunderground v.1.15,2013-01-29 08:09:00,
2013-01-29 02:14:00,47.6,46.5,29.75,SSE,167,5.0,5.0,96,0.00,,,0.08,Wunderground v.1.15,2013-01-29 08:14:00,
2013-01-29 02:19:00,47.4,46.3,29.74,SSE,168,4.0,4.0,96,0.00,,,0.08,Wunderground v.1.15,2013-01-29 08:19:00,
2013-01-29 02:24:00,47.4,46.3,29.74,South,171,3.0,6.0,96,0.00,,,0.08,Wunderground v.1.15,2013-01-29 08:24:00,
2013-01-29 02:29:00,47.6,46.5,29.74,South,175,4.0,5.0,96,0.00,,,0.08,Wunderground v.1.15,2013-01-29 08:29:00,
2013-01-29 02:34:00,47.7,46.6,29.73,South,173,4.0,5.0,96,0.00,,,0.08,Wunderground v.1.15,2013-01-29 08:34:00,
2013-01-29 02:39:00,48.5,47.7,29.73,South,187,4.0,4.0,97,0.00,,,0.08,Wunderground v.1.15,2013-01-29 08:39:00,
2013-01-29 02:44:00,49.2,48.4,29.72,South,190,5.0,5.0,97,0.00,,,0.08,Wunderground v.1.15,2013-01-29 08:44:00,
2013-01-29 02:49:00,49.8,49.0,29.72,South,169,5.0,6.0,97,0.00,,,0.08,Wunderground v.1.15,2013-01-29 08:49:00,
2013-01-29 02:54:00,50.4,49.6,29.72,South,181,6.0,6.0,97,0.00,,,0.08,Wunderground v.1.15,2013-01-29 08:54:00,
2013-01-29 02:59:00,50.5,49.7,29.70,SSW,192,7.0,7.0,97,0.00,,,0.08,Wunderground v.1.15,2013-01-29 08:59:00,
2013-01-29 03:04:00,50.7,49.9,29.70,SSW,194,6.0,7.0,97,0.00,,,0.08,Wunderground v.1.15,2013-01-29 09:04:00,
2013-01-29 03:09:00,51.3,50.5,29.70,SW,215,6.0,6.0,97,0.00,,,0.08,Wunderground v.1.15,2013-01-29 09:09:00,
2013-01-29 03:14:00,51.9,51.1,29.70,SSW,192,6.0,6.0,97,0.00,,,0.08,Wunderground v.1.15,2013-01-29 09:14:00,
2013-01-29 03:20:00,52.5,51.7,29.70,SW,221,7.0,7.0,97,0.00,,,0.08,Wunderground v.1.15,2013-01-29 09:20:00,
2013-01-29 03:24:00,52.5,51.7,29.70,SSW,203,7.0,7.0,97,0.00,,,0.08,Wunderground v.1.15,2013-01-29 09:24:00,
2013-01-29 03:29:00,52.5,51.7,29.70,SW,222,7.0,10.0,97,0.00,,,0.08,Wunderground v.1.15,2013-01-29 09:29:00,
2013-01-29 03:34:00,52.6,51.8,29.69,SSW,203,7.0,10.0,97,0.00,,,0.08,Wunderground v.1.15,2013-01-29 09:34:00,
2013-01-29 03:39:00,52.8,52.0,29.69,SSW,194,8.0,8.0,97,0.00,,,0.08,Wunderground v.1.15,2013-01-29 09:39:00,
2013-01-29 03:44:00,52.9,52.1,29.69,SSW,194,8.0,8.0,97,0.00,,,0.08,Wunderground v.1.15,2013-01-29 09:44:00,
2013-01-29 03:49:00,53.1,52.3,29.68,SW,215,8.0,8.0,97,0.00,,,0.08,Wunderground v.1.15,2013-01-29 09:49:00,
2013-01-29 03:54:00,53.3,52.5,29.68,SW,227,7.0,13.0,97,0.00,,,0.08,Wunderground v.1.15,2013-01-29 09:54:00,
2013-01-29 03:59:00,53.8,53.0,29.68,SSW,193,7.0,7.0,97,0.00,,,0.08,Wunderground v.1.15,2013-01-29 09:59:00,
2013-01-29 04:05:00,54.2,53.4,29.68,SSW,198,7.0,7.0,97,0.00,,,0.08,Wunderground v.1.15,2013-01-29 10:05:00,
2013-01-29 04:10:00,54.7,53.9,29.68,SSW,207,7.0,7.0,97,0.00,,,0.08,Wunderground v.1.15,2013-01-29 10:10:00,
2013-01-29 04:14:00,55.3,54.5,29.68,SSW,194,6.0,13.0,97,0.00,,,0.08,Wunderground v.1.15,2013-01-29 10:14:00,
2013-01-29 04:19:00,55.7,54.9,29.67,WSW,243,7.0,7.0,97,0.00,,,0.08,Wunderground v.1.15,2013-01-29 10:19:00,
2013-01-29 04:24:00,56.0,55.2,29.67,SSW,211,7.0,7.0,97,0.00,,,0.08,Wunderground v.1.15,2013-01-29 10:24:00,
2013-01-29 04:29:00,56.5,55.7,29.67,SSW,213,7.0,7.0,97,0.00,,,0.09,Wunderground v.1.15,2013-01-29 10:29:00,
2013-01-29 04:34:00,56.6,55.8,29.67,SSW,198,8.0,8.0,97,0.24,,,0.12,Wunderground v.1.15,2013-01-29 10:34:00,
2013-01-29 04:39:00,56.7,55.9,29.67,SSW,200,8.0,8.0,97,0.10,,,0.12,Wunderground v.1.15,2013-01-29 10:39:00,
2013-01-29 04:44:00,56.9,56.1,29.67,SSW,202,7.0,8.0,97,0.05,,,0.12,Wunderground v.1.15,2013-01-29 10:44:00,
2013-01-29 04:49:00,56.9,56.1,29.66,SW,218,6.0,7.0,97,0.04,,,0.12,Wunderground v.1.15,2013-01-29 10:49:00,
2013-01-29 04:54:00,56.9,56.1,29.66,SSW,193,6.0,7.0,97,0.00,,,0.12,Wunderground v.1.15,2013-01-29 10:54:00,
2013-01-29 04:59:00,57.2,56.4,29.66,SW,217,6.0,6.0,97,0.00,,,0.12,Wunderground v.1.15,2013-01-29 10:59:00,
2013-01-29 05:04:00,57.3,56.5,29.66,SW,234,7.0,7.0,97,0.00,,,0.12,Wunderground v.1.15,2013-01-29 11:04:00,
2013-01-29 05:09:00,57.3,56.5,29.66,South,190,7.0,8.0,97,0.00,,,0.12,Wunderground v.1.15,2013-01-29 11:09:00,
2013-01-29 05:15:00,57.3,56.5,29.67,SW,217,7.0,8.0,97,0.00,,,0.12,Wunderground v.1.15,2013-01-29 11:15:00,
2013-01-29 05:20:00,57.3,56.5,29.67,SW,230,7.0,11.0,97,0.00,,,0.12,Wunderground v.1.15,2013-01-29 11:20:00,
2013-01-29 05:25:00,57.5,56.7,29.67,SW,232,7.0,11.0,97,0.00,,,0.12,Wunderground v.1.15,2013-01-29 11:25:00,
2013-01-29 05:29:00,57.5,56.7,29.67,SW,232,7.0,7.0,97,0.00,,,0.12,Wunderground v.1.15,2013-01-29 11:29:00,
2013-01-29 05:34:00,57.8,57.0,29.67,WSW,248,7.0,12.0,97,0.00,,,0.12,Wunderground v.1.15,2013-01-29 11:34:00,
2013-01-29 05:39:00,58.0,57.2,29.67,SW,234,8.0,8.0,97,0.00,,,0.13,Wunderground v.1.15,2013-01-29 11:39:00,
2013-01-29 05:44:00,58.0,57.2,29.67,SSW,198,8.0,8.0,97,0.00,,,0.13,Wunderground v.1.15,2013-01-29 11:44:00,
2013-01-29 05:49:00,58.0,57.2,29.67,SSW,210,7.0,7.0,97,0.00,,,0.13,Wunderground v.1.15,2013-01-29 11:49:00,
2013-01-29 05:54:00,58.1,57.0,29.67,SSW,202,8.0,8.0,96,0.00,,,0.13,Wunderground v.1.15,2013-01-29 11:54:00,
2013-01-29 05:59:00,58.0,56.9,29.66,SSW,205,9.0,9.0,96,0.00,,,0.13,Wunderground v.1.15,2013-01-29 11:59:00,
2013-01-29 06:04:00,58.0,56.9,29.66,SW,230,8.0,9.0,96,0.00,,,0.13,Wunderground v.1.15,2013-01-29 12:04:00,
2013-01-29 06:10:00,58.0,56.6,29.66,SW,229,8.0,8.0,95,0.00,,,0.13,Wunderground v.1.15,2013-01-29 12:10:00,
2013-01-29 06:15:00,58.0,56.6,29.65,SSW,207,8.0,9.0,95,0.00,,,0.13,Wunderground v.1.15,2013-01-29 12:15:00,
2013-01-29 06:20:00,57.8,56.4,29.65,SSW,198,7.0,7.0,95,0.00,,,0.13,Wunderground v.1.15,2013-01-29 12:20:00,
2013-01-29 06:24:00,57.8,56.4,29.65,WSW,239,7.0,7.0,95,0.00,,,0.13,Wunderground v.1.15,2013-01-29 12:24:00,
2013-01-29 06:29:00,57.8,56.4,29.65,WSW,242,8.0,11.0,95,0.00,,,0.13,Wunderground v.1.15,2013-01-29 12:29:00,
2013-01-29 06:34:00,57.6,55.9,29.66,SW,229,8.0,11.0,94,0.00,,,0.13,Wunderground v.1.15,2013-01-29 12:34:00,
2013-01-29 06:39:00,57.6,55.9,29.66,SW,225,7.0,7.0,94,0.00,,,0.13,Wunderground v.1.15,2013-01-29 12:39:00,
2013-01-29 06:44:00,57.6,55.9,29.66,SSW,202,7.0,7.0,94,0.00,,,0.13,Wunderground v.1.15,2013-01-29 12:44:00,
2013-01-29 06:49:00,57.8,55.8,29.66,SW,233,8.0,8.0,93,0.00,,,0.13,Wunderground v.1.15,2013-01-29 12:49:00,
2013-01-29 06:54:00,57.8,55.8,29.66,SSW,202,9.0,10.0,93,0.00,,,0.13,Wunderground v.1.15,2013-01-29 12:54:00,
2013-01-29 06:59:00,57.8,55.8,29.66,SW,214,9.0,14.0,93,0.00,,,0.13,Wunderground v.1.15,2013-01-29 12:59:00,
2013-01-29 07:05:00,57.6,55.6,29.66,SSW,204,8.0,14.0,93,0.00,,,0.13,Wunderground v.1.15,2013-01-29 13:05:00,
2013-01-29 07:09:00,57.6,55.6,29.66,SW,219,8.0,11.0,93,0.00,,,0.13,Wunderground v.1.15,2013-01-29 13:09:00,
2013-01-29 07:14:00,57.6,55.6,29.66,SSW,193,8.0,11.0,93,0.00,,,0.13,Wunderground v.1.15,2013-01-29 13:14:00,
2013-01-29 07:19:00,57.6,55.6,29.65,SSW,210,7.0,8.0,93,0.00,,,0.13,Wunderground v.1.15,2013-01-29 13:19:00,
2013-01-29 07:24:00,57.6,55.3,29.65,WSW,239,8.0,8.0,92,0.00,,,0.13,Wunderground v.1.15,2013-01-29 13:24:00,
2013-01-29 07:29:00,57.6,55.3,29.65,WSW,239,7.0,10.0,92,0.00,,,0.13,Wunderground v.1.15,2013-01-29 13:29:00,
2013-01-29 07:34:00,57.6,55.3,29.65,SSW,200,7.0,10.0,92,0.00,,,0.13,Wunderground v.1.15,2013-01-29 13:34:00,
2013-01-29 07:39:00,57.5,55.2,29.65,SSW,205,6.0,6.0,92,0.00,,,0.13,Wunderground v.1.15,2013-01-29 13:39:00,
2013-01-29 07:44:00,57.6,55.3,29.65,SSW,197,7.0,7.0,92,0.00,,,0.13,Wunderground v.1.15,2013-01-29 13:44:00,
2013-01-29 07:49:00,57.6,55.3,29.65,SSW,205,7.0,8.0,92,0.00,,,0.13,Wunderground v.1.15,2013-01-29 13:49:00,
2013-01-29 07:54:00,57.6,55.3,29.65,South,191,7.0,8.0,92,0.00,,,0.13,Wunderground v.1.15,2013-01-29 13:54:00,
2013-01-29 07:59:00,57.8,55.5,29.66,SSW,207,6.0,6.0,92,0.00,,,0.13,Wunderground v.1.15,2013-01-29 13:59:00,
2013-01-29 08:04:00,57.8,55.5,29.66,South,191,6.0,7.0,92,0.00,,,0.13,Wunderground v.1.15,2013-01-29 14:04:00,
2013-01-29 08:09:00,58.1,55.8,29.66,SSW,210,7.0,7.0,92,0.00,,,0.13,Wunderground v.1.15,2013-01-29 14:09:00,
2013-01-29 08:14:00,58.1,55.5,29.66,SW,220,6.0,11.0,91,0.00,,,0.13,Wunderground v.1.15,2013-01-29 14:14:00,
2013-01-29 08:19:00,58.3,55.7,29.66,South,190,7.0,7.0,91,0.00,,,0.13,Wunderground v.1.15,2013-01-29 14:19:00,
2013-01-29 08:24:00,58.3,55.4,29.66,South,180,8.0,8.0,90,0.00,,,0.13,Wunderground v.1.15,2013-01-29 14:24:00,
2013-01-29 08:29:00,58.3,55.4,29.66,SSW,206,7.0,7.0,90,0.00,,,0.13,Wunderground v.1.15,2013-01-29 14:29:00,
2013-01-29 08:34:00,58.3,55.4,29.66,SW,214,7.0,7.0,90,0.00,,,0.13,Wunderground v.1.15,2013-01-29 14:34:00,
2013-01-29 08:39:00,58.3,55.4,29.66,SW,232,7.0,12.0,90,0.00,,,0.13,Wunderground v.1.15,2013-01-29 14:39:00,
2013-01-29 08:44:00,58.3,55.4,29.66,SSW,208,7.0,12.0,90,0.00,,,0.13,Wunderground v.1.15,2013-01-29 14:44:00,
2013-01-29 08:49:00,58.3,55.4,29.66,SW,235,7.0,7.0,90,0.00,,,0.13,Wunderground v.1.15,2013-01-29 14:49:00,
2013-01-29 08:54:00,58.4,55.5,29.66,SSW,201,6.0,8.0,90,0.00,,,0.13,Wunderground v.1.15,2013-01-29 14:54:00,
2013-01-29 08:59:00,58.4,55.2,29.66,SW,215,8.0,16.0,89,0.00,,,0.13,Wunderground v.1.15,2013-01-29 14:59:00,
2013-01-29 09:04:00,58.6,55.4,29.66,SSW,193,8.0,16.0,89,0.00,,,0.13,Wunderground v.1.15,2013-01-29 15:04:00,
2013-01-29 09:09:00,58.6,55.4,29.66,SSW,192,8.0,11.0,89,0.00,,,0.13,Wunderground v.1.15,2013-01-29 15:09:00,
2013-01-29 09:14:00,58.4,55.2,29.66,SW,220,7.0,11.0,89,0.00,,,0.13,Wunderground v.1.15,2013-01-29 15:14:00,
2013-01-29 09:19:00,58.4,55.2,29.66,SSW,201,6.0,6.0,89,0.00,,,0.13,Wunderground v.1.15,2013-01-29 15:19:00,
2013-01-29 09:24:00,58.3,55.1,29.66,SSW,196,6.0,6.0,89,0.00,,,0.13,Wunderground v.1.15,2013-01-29 15:24:00,
2013-01-29 09:29:00,58.3,55.1,29.66,SSW,213,6.0,7.0,89,0.00,,,0.13,Wunderground v.1.15,2013-01-29 15:29:00,
2013-01-29 09:34:00,58.4,55.2,29.66,SW,227,6.0,7.0,89,0.00,,,0.13,Wunderground v.1.15,2013-01-29 15:34:00,
2013-01-29 09:39:00,58.1,54.6,29.66,SSW,197,6.0,6.0,88,0.00,,,0.13,Wunderground v.1.15,2013-01-29 15:39:00,
2013-01-29 09:45:00,58.0,54.8,29.65,SW,229,5.0,6.0,89,0.00,,,0.13,Wunderground v.1.15,2013-01-29 15:45:00,
2013-01-29 09:50:00,58.0,54.8,29.65,SSW,208,6.0,6.0,89,0.00,,,0.13,Wunderground v.1.15,2013-01-29 15:50:00,
2013-01-29 09:55:00,57.8,54.6,29.65,South,190,5.0,6.0,89,0.00,,,0.13,Wunderground v.1.15,2013-01-29 15:55:00,
2013-01-29 09:59:00,57.8,54.6,29.66,SSW,195,4.0,10.0,89,0.00,,,0.13,Wunderground v.1.15,2013-01-29 15:59:00,
2013-01-29 10:09:00,57.8,54.6,29.66,SSW,192,5.0,12.0,89,0.00,,,0.13,Wunderground v.1.15,2013-01-29 16:09:00,
2013-01-29 10:14:00,57.8,54.9,29.66,SSW,201,7.0,12.0,90,0.00,,,0.13,Wunderground v.1.15,2013-01-29 16:14:00,
2013-01-29 10:19:00,57.8,54.9,29.64,SSW,199,7.0,7.0,90,0.00,,,0.13,Wunderground v.1.15,2013-01-29 16:19:00,
2013-01-29 10:24:00,58.0,55.1,29.64,SSW,197,6.0,9.0,90,0.00,,,0.13,Wunderground v.1.15,2013-01-29 16:24:00,
2013-01-29 10:29:00,58.0,55.1,29.64,SW,229,6.0,6.0,90,0.00,,,0.13,Wunderground v.1.15,2013-01-29 16:29:00,
2013-01-29 10:34:00,58.1,55.2,29.65,SSW,213,7.0,7.0,90,0.00,,,0.13,Wunderground v.1.15,2013-01-29 16:34:00,
2013-01-29 10:39:00,58.1,54.9,29.65,SW,234,6.0,14.0,89,0.00,,,0.13,Wunderground v.1.15,2013-01-29 16:39:00,
2013-01-29 10:44:00,58.3,55.1,29.64,SW,215,7.0,14.0,89,0.00,,,0.13,Wunderground v.1.15,2013-01-29 16:44:00,
2013-01-29 10:49:00,58.3,55.1,29.64,SW,229,8.0,9.0,89,0.00,,,0.13,Wunderground v.1.15,2013-01-29 16:49:00,
2013-01-29 10:55:00,58.4,55.2,29.64,SW,233,6.0,9.0,89,0.00,,,0.13,Wunderground v.1.15,2013-01-29 16:55:00,
2013-01-29 11:00:00,58.4,55.2,29.64,SSW,202,6.0,6.0,89,0.00,,,0.13,Wunderground v.1.15,2013-01-29 17:00:00,
2013-01-29 11:04:00,58.4,55.2,29.64,SW,230,6.0,6.0,89,0.00,,,0.13,Wunderground v.1.15,2013-01-29 17:04:00,
2013-01-29 11:09:00,58.6,55.4,29.64,SW,230,7.0,7.0,89,0.00,,,0.13,Wunderground v.1.15,2013-01-29 17:09:00,
2013-01-29 11:14:00,58.6,55.4,29.64,SW,219,7.0,7.0,89,0.00,,,0.13,Wunderground v.1.15,2013-01-29 17:14:00,
2013-01-29 11:19:00,58.7,55.5,29.63,SSW,193,8.0,8.0,89,0.00,,,0.13,Wunderground v.1.15,2013-01-29 17:19:00,
2013-01-29 11:24:00,58.7,55.5,29.63,South,186,8.0,8.0,89,0.00,,,0.13,Wunderground v.1.15,2013-01-29 17:24:00,
2013-01-29 11:29:00,58.7,55.5,29.62,SSW,205,8.0,9.0,89,0.00,,,0.13,Wunderground v.1.15,2013-01-29 17:29:00,
2013-01-29 11:34:00,58.6,55.4,29.62,SSW,210,8.0,9.0,89,0.00,,,0.13,Wunderground v.1.15,2013-01-29 17:34:00,
2013-01-29 11:39:00,58.6,55.4,29.62,SSW,208,7.0,7.0,89,0.00,,,0.13,Wunderground v.1.15,2013-01-29 17:39:00,
2013-01-29 11:44:00,58.6,55.4,29.61,SSW,213,7.0,8.0,89,0.00,,,0.13,Wunderground v.1.15,2013-01-29 17:44:00,
2013-01-29 11:49:00,58.4,55.2,29.61,SSW,206,6.0,6.0,89,0.00,,,0.13,Wunderground v.1.15,2013-01-29 17:49:00,
2013-01-29 11:54:00,58.6,55.7,29.61,SW,224,8.0,9.0,90,0.00,,,0.13,Wunderground v.1.15,2013-01-29 17:54:00,
2013-01-29 11:59:00,58.6,55.4,29.61,SW,218,8.0,8.0,89,0.00,,,0.13,Wunderground v.1.15,2013-01-29 17:59:00,
2013-01-29 12:04:00,58.6,55.4,29.61,SW,221,7.0,15.0,89,0.00,,,0.13,Wunderground v.1.15,2013-01-29 18:04:00,
2013-01-29 12:09:00,58.6,55.7,29.61,South,191,7.0,10.0,90,0.00,,,0.13,Wunderground v.1.15,2013-01-29 18:09:00,
2013-01-29 12:14:00,58.7,55.8,29.61,SSW,210,8.0,10.0,90,0.00,,,0.13,Wunderground v.1.15,2013-01-29 18:14:00,
2013-01-29 12:19:00,58.7,55.5,29.59,SSW,192,8.0,8.0,89,0.00,,,0.13,Wunderground v.1.15,2013-01-29 18:19:00,
2013-01-29 12:24:00,58.9,55.7,29.59,SW,222,7.0,8.0,89,0.00,,,0.13,Wunderground v.1.15,2013-01-29 18:24:00,
2013-01-29 12:29:00,58.9,55.7,29.59,SW,225,8.0,14.0,89,0.00,,,0.13,Wunderground v.1.15,2013-01-29 18:29:00,
2013-01-29 12:34:00,58.9,55.7,29.59,SSW,208,8.0,14.0,89,0.00,,,0.13,Wunderground v.1.15,2013-01-29 18:34:00,
2013-01-29 12:39:00,59.0,55.8,29.59,South,184,6.0,6.0,89,0.00,,,0.13,Wunderground v.1.15,2013-01-29 18:39:00,
2013-01-29 12:44:00,58.9,55.7,29.58,SSW,200,6.0,6.0,89,0.00,,,0.13,Wunderground v.1.15,2013-01-29 18:44:00,
2013-01-29 12:49:00,58.9,55.4,29.58,SSW,212,6.0,10.0,88,0.00,,,0.13,Wunderground v.1.15,2013-01-29 18:49:00,
2013-01-29 12:54:00,58.7,55.5,29.58,SW,217,7.0,10.0,89,0.00,,,0.13,Wunderground v.1.15,2013-01-29 18:54:00,
2013-01-29 13:00:00,58.7,55.5,29.57,SSW,200,6.0,6.0,89,0.00,,,0.13,Wunderground v.1.15,2013-01-29 19:00:00,
2013-01-29 13:09:00,58.9,55.7,29.57,SSW,197,6.0,6.0,89,0.00,,,0.13,Wunderground v.1.15,2013-01-29 19:09:00,
2013-01-29 13:14:00,58.9,55.7,29.57,SSW,201,5.0,6.0,89,0.00,,,0.13,Wunderground v.1.15,2013-01-29 19:14:00,
2013-01-29 13:19:00,59.0,55.8,29.56,SSW,192,6.0,6.0,89,0.00,,,0.13,Wunderground v.1.15,2013-01-29 19:19:00,
2013-01-29 13:24:00,58.9,55.7,29.56,SSW,203,6.0,6.0,89,0.00,,,0.13,Wunderground v.1.15,2013-01-29 19:24:00,
2013-01-29 13:29:00,58.7,55.5,29.56,South,186,6.0,6.0,89,0.00,,,0.13,Wunderground v.1.15,2013-01-29 19:29:00,
2013-01-29 13:34:00,58.7,55.8,29.55,South,190,5.0,6.0,90,0.00,,,0.13,Wunderground v.1.15,2013-01-29 19:34:00,
2013-01-29 13:39:00,58.7,55.8,29.55,SSW,194,5.0,5.0,90,0.00,,,0.14,Wunderground v.1.15,2013-01-29 19:39:00,
2013-01-29 13:44:00,58.6,55.7,29.55,SSW,199,5.0,5.0,90,0.00,,,0.14,Wunderground v.1.15,2013-01-29 19:44:00,
2013-01-29 13:49:00,58.4,55.8,29.54,South,184,5.0,5.0,91,0.00,,,0.14,Wunderground v.1.15,2013-01-29 19:49:00,
2013-01-29 13:54:00,58.3,55.7,29.54,SSW,212,5.0,5.0,91,0.00,,,0.14,Wunderground v.1.15,2013-01-29 19:54:00,
2013-01-29 13:59:00,58.3,56.0,29.53,SW,215,6.0,6.0,92,0.00,,,0.14,Wunderground v.1.15,2013-01-29 19:59:00,
2013-01-29 14:09:00,58.4,56.7,29.53,SSW,192,6.0,8.0,94,0.00,,,0.14,Wunderground v.1.15,2013-01-29 20:09:00,
2013-01-29 14:14:00,58.4,56.1,29.53,SSW,211,6.0,8.0,92,0.00,,,0.14,Wunderground v.1.15,2013-01-29 20:14:00,
2013-01-29 14:19:00,58.4,56.1,29.53,SSW,196,7.0,13.0,92,0.00,,,0.14,Wunderground v.1.15,2013-01-29 20:19:00,
2013-01-29 14:24:00,58.4,56.1,29.53,SSW,205,7.0,13.0,92,0.00,,,0.14,Wunderground v.1.15,2013-01-29 20:24:00,
2013-01-29 14:29:00,58.4,56.1,29.53,South,191,8.0,8.0,92,0.00,,,0.14,Wunderground v.1.15,2013-01-29 20:29:00,
2013-01-29 14:34:00,58.4,56.1,29.53,SSW,198,7.0,12.0,92,0.00,,,0.14,Wunderground v.1.15,2013-01-29 20:34:00,
2013-01-29 14:39:00,58.4,56.1,29.53,SW,217,7.0,12.0,92,0.00,,,0.14,Wunderground v.1.15,2013-01-29 20:39:00,
2013-01-29 14:44:00,58.4,56.1,29.53,SSW,192,6.0,12.0,92,0.00,,,0.14,Wunderground v.1.15,2013-01-29 20:44:00,
2013-01-29 14:54:00,58.6,56.0,29.53,South,184,7.0,9.0,91,0.00,,,0.14,Wunderground v.1.15,2013-01-29 20:54:00,
2013-01-29 14:59:00,58.6,56.0,29.51,South,187,7.0,8.0,91,0.00,,,0.14,Wunderground v.1.15,2013-01-29 20:59:00,
2013-01-29 15:04:00,58.6,55.7,29.51,SSW,199,8.0,8.0,90,0.00,,,0.14,Wunderground v.1.15,2013-01-29 21:04:00,
2013-01-29 15:09:00,58.6,55.7,29.51,SSW,199,8.0,19.0,90,0.00,,,0.14,Wunderground v.1.15,2013-01-29 21:09:00,
2013-01-29 15:14:00,58.7,55.8,29.51,South,182,8.0,19.0,90,0.00,,,0.14,Wunderground v.1.15,2013-01-29 21:14:00,
2013-01-29 15:19:00,58.7,55.8,29.51,South,176,9.0,12.0,90,0.00,,,0.14,Wunderground v.1.15,2013-01-29 21:19:00,
2013-01-29 15:24:00,58.7,55.8,29.51,SW,221,8.0,12.0,90,0.00,,,0.14,Wunderground v.1.15,2013-01-29 21:24:00,
2013-01-29 15:29:00,58.7,55.5,29.51,SSW,200,8.0,9.0,89,0.00,,,0.14,Wunderground v.1.15,2013-01-29 21:29:00,
2013-01-29 15:34:00,58.7,55.5,29.51,SSW,200,8.0,9.0,89,0.00,,,0.14,Wunderground v.1.15,2013-01-29 21:34:00,
2013-01-29 15:39:00,58.7,55.5,29.51,SW,217,7.0,7.0,89,0.00,,,0.14,Wunderground v.1.15,2013-01-29 21:39:00,
2013-01-29 15:44:00,58.7,55.5,29.51,South,189,8.0,8.0,89,0.00,,,0.14,Wunderground v.1.15,2013-01-29 21:44:00,
2013-01-29 15:50:00,58.7,55.5,29.51,SSW,210,7.0,7.0,89,0.00,,,0.14,Wunderground v.1.15,2013-01-29 21:50:00,
2013-01-29 15:55:00,58.7,55.5,29.51,SSW,213,7.0,14.0,89,0.00,,,0.14,Wunderground v.1.15,2013-01-29 21:55:00,
2013-01-29 15:59:00,58.7,55.5,29.51,South,181,8.0,9.0,89,0.00,,,0.14,Wunderground v.1.15,2013-01-29 21:59:00,
2013-01-29 16:04:00,58.7,55.5,29.50,SSW,200,9.0,9.0,89,0.00,,,0.14,Wunderground v.1.15,2013-01-29 22:04:00,
2013-01-29 16:09:00,58.7,55.5,29.50,SW,215,7.0,8.0,89,0.00,,,0.14,Wunderground v.1.15,2013-01-29 22:09:00,
2013-01-29 16:14:00,58.9,56.0,29.50,SSW,208,8.0,8.0,90,0.00,,,0.14,Wunderground v.1.15,2013-01-29 22:14:00,
2013-01-29 16:19:00,58.9,55.7,29.50,WSW,244,9.0,15.0,89,0.00,,,0.14,Wunderground v.1.15,2013-01-29 22:19:00,
2013-01-29 16:24:00,58.9,55.7,29.50,SW,215,10.0,15.0,89,0.00,,,0.14,Wunderground v.1.15,2013-01-29 22:24:00,
2013-01-29 16:29:00,58.9,55.7,29.49,SW,219,11.0,11.0,89,0.00,,,0.14,Wunderground v.1.15,2013-01-29 22:29:00,
2013-01-29 16:34:00,58.9,55.7,29.49,SSW,200,10.0,19.0,89,0.00,,,0.14,Wunderground v.1.15,2013-01-29 22:34:00,
2013-01-29 16:40:00,59.0,55.8,29.49,SSW,202,10.0,14.0,89,0.00,,,0.14,Wunderground v.1.15,2013-01-29 22:40:00,
2013-01-29 16:49:00,59.0,55.8,29.48,SSW,202,11.0,14.0,89,0.00,,,0.14,Wunderground v.1.15,2013-01-29 22:49:00,
2013-01-29 16:54:00,59.0,55.8,29.48,South,181,10.0,14.0,89,0.00,,,0.14,Wunderground v.1.15,2013-01-29 22:54:00,
2013-01-29 16:59:00,59.0,55.8,29.48,SSW,194,10.0,10.0,89,0.00,,,0.14,Wunderground v.1.15,2013-01-29 22:59:00,
2013-01-29 17:04:00,59.0,55.8,29.48,SSW,213,10.0,10.0,89,0.00,,,0.14,Wunderground v.1.15,2013-01-29 23:04:00,
2013-01-29 17:09:00,59.0,55.8,29.48,SSW,208,11.0,11.0,89,0.00,,,0.14,Wunderground v.1.15,2013-01-29 23:09:00,
2013-01-29 17:14:00,58.9,55.7,29.48,South,171,10.0,16.0,89,0.00,,,0.14,Wunderground v.1.15,2013-01-29 23:14:00,
2013-01-29 17:19:00,58.9,55.7,29.46,SSW,193,10.0,13.0,89,0.00,,,0.14,Wunderground v.1.15,2013-01-29 23:19:00,
2013-01-29 17:24:00,58.7,55.5,29.46,SSW,207,10.0,16.0,89,0.00,,,0.14,Wunderground v.1.15,2013-01-29 23:24:00,
2013-01-29 17:29:00,58.9,55.7,29.46,South,190,10.0,13.0,89,0.00,,,0.14,Wunderground v.1.15,2013-01-29 23:29:00,
2013-01-29 17:34:00,58.9,55.4,29.46,South,182,9.0,13.0,88,0.00,,,0.14,Wunderground v.1.15,2013-01-29 23:34:00,
2013-01-29 17:39:00,58.9,55.4,29.46,SSW,209,9.0,9.0,88,0.00,,,0.14,Wunderground v.1.15,2013-01-29 23:39:00,
2013-01-29 17:45:00,58.9,55.4,29.46,SSW,205,10.0,12.0,88,0.00,,,0.14,Wunderground v.1.15,2013-01-29 23:45:00,
2013-01-29 17:54:00,59.0,55.1,29.46,South,181,10.0,15.0,87,0.00,,,0.14,Wunderground v.1.15,2013-01-29 23:54:00,
2013-01-29 17:59:00,59.2,55.3,29.46,SSW,205,11.0,11.0,87,0.00,,,0.14,Wunderground v.1.15,2013-01-29 23:59:00,
2013-01-29 18:04:00,59.2,55.0,29.44,SSW,199,11.0,21.0,86,0.00,,,0.14,Wunderground v.1.15,2013-01-30 00:04:00,
2013-01-29 18:09:00,59.3,55.1,29.44,SSW,202,10.0,12.0,86,0.00,,,0.14,Wunderground v.1.15,2013-01-30 00:09:00,
2013-01-29 18:15:00,59.3,54.8,29.43,SSW,194,11.0,13.0,85,0.00,,,0.14,Wunderground v.1.15,2013-01-30 00:15:00,
2013-01-29 18:20:00,59.5,55.0,29.43,SSW,200,12.0,13.0,85,0.00,,,0.14,Wunderground v.1.15,2013-01-30 00:20:00,
2013-01-29 18:24:00,59.5,54.7,29.43,South,173,12.0,14.0,84,0.00,,,0.14,Wunderground v.1.15,2013-01-30 00:24:00,
2013-01-29 18:29:00,59.5,54.7,29.43,SW,216,11.0,11.0,84,0.00,,,0.14,Wunderground v.1.15,2013-01-30 00:29:00,
2013-01-29 18:34:00,59.5,55.0,29.42,South,173,11.0,11.0,85,0.00,,,0.14,Wunderground v.1.15,2013-01-30 00:34:00,
2013-01-29 18:39:00,59.2,55.0,29.42,SSW,209,12.0,13.0,86,0.00,,,0.15,Wunderground v.1.15,2013-01-30 00:39:00,
2013-01-29 18:44:00,58.9,55.0,29.42,SSE,148,12.0,13.0,87,0.00,,,0.15,Wunderground v.1.15,2013-01-30 00:44:00,
2013-01-29 18:49:00,58.7,54.8,29.41,South,188,11.0,11.0,87,0.00,,,0.15,Wunderground v.1.15,2013-01-30 00:49:00,
2013-01-29 18:54:00,58.7,54.8,29.41,SSW,208,10.0,11.0,87,0.00,,,0.15,Wunderground v.1.15,2013-01-30 00:54:00,
2013-01-29 18:59:00,58.7,54.8,29.41,SSE,150,11.0,11.0,87,0.00,,,0.16,Wunderground v.1.15,2013-01-30 00:59:00,
2013-01-29 19:04:00,58.7,54.8,29.39,South,171,12.0,12.0,87,0.00,,,0.16,Wunderground v.1.15,2013-01-30 01:04:00,
2013-01-29 19:09:00,58.9,54.7,29.39,South,186,13.0,17.0,86,0.00,,,0.16,Wunderground v.1.15,2013-01-30 01:09:00,
2013-01-29 19:14:00,59.0,54.8,29.38,SSW,197,14.0,20.0,86,0.00,,,0.16,Wunderground v.1.15,2013-01-30 01:14:00,
2013-01-29 19:20:00,59.0,54.5,29.38,SSE,163,13.0,13.0,85,0.00,,,0.16,Wunderground v.1.15,2013-01-30 01:20:00,
2013-01-29 19:25:00,59.2,54.7,29.38,SSW,206,13.0,18.0,85,0.00,,,0.16,Wunderground v.1.15,2013-01-30 01:25:00,
2013-01-29 19:29:00,59.2,54.7,29.38,SSW,200,13.0,18.0,85,1.40,,,0.18,Wunderground v.1.15,2013-01-30 01:29:00,
2013-01-29 19:34:00,58.7,54.5,29.38,South,174,14.0,18.0,86,0.17,,,0.21,Wunderground v.1.15,2013-01-30 01:34:00,
2013-01-29 19:39:00,58.6,54.7,29.38,South,173,14.0,14.0,87,0.10,,,0.21,Wunderground v.1.15,2013-01-30 01:39:00,
2013-01-29 19:44:00,58.7,54.8,29.38,SSW,207,14.0,15.0,87,0.05,,,0.21,Wunderground v.1.15,2013-01-30 01:44:00,
2013-01-29 19:49:00,58.7,54.5,29.36,SSW,198,13.0,13.0,86,0.04,,,0.21,Wunderground v.1.15,2013-01-30 01:49:00,
2013-01-29 19:54:00,58.7,54.5,29.36,SW,222,12.0,13.0,86,0.00,,,0.21,Wunderground v.1.15,2013-01-30 01:54:00,
2013-01-29 19:59:00,59.0,54.5,29.36,SSW,202,11.0,22.0,85,0.00,,,0.21,Wunderground v.1.15,2013-01-30 01:59:00,
2013-01-29 20:04:00,59.0,54.5,29.35,SW,229,11.0,22.0,85,0.00,,,0.21,Wunderground v.1.15,2013-01-30 02:04:00,
2013-01-29 20:10:00,58.7,54.5,29.35,SSW,204,8.0,13.0,86,0.49,,,0.24,Wunderground v.1.15,2013-01-30 02:10:00,
2013-01-29 20:14:00,58.7,54.5,29.35,WSW,249,8.0,14.0,86,0.11,,,0.24,Wunderground v.1.15,2013-01-30 02:14:00,
2013-01-29 20:19:00,58.6,54.7,29.39,West,268,9.0,9.0,87,0.38,,,0.28,Wunderground v.1.15,2013-01-30 02:19:00,
2013-01-29 20:24:00,56.2,52.4,29.39,WSW,247,10.0,10.0,87,0.31,,,0.32,Wunderground v.1.15,2013-01-30 02:24:00,
2013-01-29 20:29:00,55.6,52.4,29.39,WSW,252,9.0,9.0,89,0.13,,,0.33,Wunderground v.1.15,2013-01-30 02:29:00,
2013-01-29 20:34:00,55.4,52.5,29.38,WSW,247,6.0,9.0,90,0.11,,,0.34,Wunderground v.1.15,2013-01-30 02:34:00,
2013-01-29 20:39:00,55.3,52.4,29.38,West,268,5.0,6.0,90,0.07,,,0.35,Wunderground v.1.15,2013-01-30 02:39:00,
2013-01-29 20:44:00,54.4,51.5,29.38,WSW,256,7.0,10.0,90,0.17,,,0.36,Wunderground v.1.15,2013-01-30 02:44:00,
2013-01-29 20:49:00,52.9,50.0,29.39,NW,305,7.0,7.0,90,0.17,,,0.37,Wunderground v.1.15,2013-01-30 02:49:00,
2013-01-29 20:54:00,51.7,49.2,29.39,WNW,292,5.0,7.0,91,0.12,,,0.38,Wunderground v.1.15,2013-01-30 02:54:00,
2013-01-29 20:59:00,51.4,49.2,29.39,WNW,292,3.0,3.0,92,0.06,,,0.38,Wunderground v.1.15,2013-01-30 02:59:00,
2013-01-29 21:04:00,51.1,48.9,29.38,WNW,292,3.0,3.0,92,0.05,,,0.39,Wunderground v.1.15,2013-01-30 03:04:00,
2013-01-29 21:09:00,51.1,49.1,29.38,WSW,240,2.0,9.0,93,0.05,,,0.39,Wunderground v.1.15,2013-01-30 03:09:00,
2013-01-29 21:14:00,51.1,49.1,29.38,WSW,242,3.0,9.0,93,0.05,,,0.39,Wunderground v.1.15,2013-01-30 03:14:00,
2013-01-29 21:19:00,51.1,49.1,29.38,WSW,241,3.0,4.0,93,0.04,,,0.40,Wunderground v.1.15,2013-01-30 03:19:00,
2013-01-29 21:25:00,51.1,49.1,29.38,NW,309,3.0,5.0,93,0.15,,,0.41,Wunderground v.1.15,2013-01-30 03:25:00,
2013-01-29 21:29:00,51.4,49.7,29.38,NNE,12,4.0,4.0,94,0.11,,,0.42,Wunderground v.1.15,2013-01-30 03:29:00,
2013-01-29 21:34:00,51.6,49.9,29.37,North,5,4.0,4.0,94,0.10,,,0.42,Wunderground v.1.15,2013-01-30 03:34:00,
2013-01-29 21:39:00,51.6,49.9,29.37,North,5,2.0,2.0,94,0.05,,,0.42,Wunderground v.1.15,2013-01-30 03:39:00,
2013-01-29 21:44:00,51.9,50.5,29.37,NNW,347,1.0,3.0,95,0.04,,,0.42,Wunderground v.1.15,2013-01-30 03:44:00,
2013-01-29 21:49:00,52.0,50.6,29.37,SW,232,2.0,3.0,95,0.00,,,0.42,Wunderground v.1.15,2013-01-30 03:49:00,
2013-01-29 21:54:00,52.3,50.9,29.37,SW,234,3.0,3.0,95,0.00,,,0.43,Wunderground v.1.15,2013-01-30 03:54:00,
2013-01-29 21:59:00,52.2,50.8,29.37,SW,234,3.0,3.0,95,0.00,,,0.43,Wunderground v.1.15,2013-01-30 03:59:00,
2013-01-29 22:04:00,52.0,50.6,29.37,SW,234,3.0,3.0,95,0.00,,,0.43,Wunderground v.1.15,2013-01-30 04:04:00,
2013-01-29 22:14:00,52.0,50.6,29.35,SW,234,2.0,3.0,95,0.00,,,0.43,Wunderground v.1.15,2013-01-30 04:14:00,
2013-01-29 22:19:00,52.0,50.6,29.35,SW,234,1.0,1.0,95,0.00,,,0.43,Wunderground v.1.15,2013-01-30 04:19:00,
2013-01-29 22:25:00,52.0,50.6,29.35,SW,234,1.0,1.0,95,0.00,,,0.43,Wunderground v.1.15,2013-01-30 04:25:00,
2013-01-29 22:29:00,52.0,50.6,29.35,SW,234,1.0,2.0,95,0.00,,,0.44,Wunderground v.1.15,2013-01-30 04:29:00,
2013-01-29 22:34:00,51.9,50.5,29.35,SW,234,2.0,2.0,95,0.00,,,0.44,Wunderground v.1.15,2013-01-30 04:34:00,
2013-01-29 22:39:00,51.9,50.5,29.35,SW,234,2.0,2.0,95,0.06,,,0.45,Wunderground v.1.15,2013-01-30 04:39:00,
2013-01-29 22:44:00,51.7,50.3,29.35,SW,234,1.0,2.0,95,0.06,,,0.45,Wunderground v.1.15,2013-01-30 04:44:00,
2013-01-29 22:49:00,51.7,50.3,29.34,SW,234,1.0,2.0,95,0.04,,,0.45,Wunderground v.1.15,2013-01-30 04:49:00,
2013-01-29 22:54:00,51.7,50.3,29.34,SW,234,1.0,2.0,95,0.04,,,0.46,Wunderground v.1.15,2013-01-30 04:54:00,
2013-01-29 22:59:00,51.6,50.2,29.34,SW,234,2.0,2.0,95,0.09,,,0.47,Wunderground v.1.15,2013-01-30 04:59:00,
2013-01-29 23:04:00,51.6,50.2,29.33,SW,234,2.0,2.0,95,0.14,,,0.01,Wunderground v.1.15,2013-01-30 05:04:00,
2013-01-29 23:10:00,51.4,50.0,29.33,SW,234,2.0,2.0,95,0.17,,,0.02,Wunderground v.1.15,2013-01-30 05:10:00,
2013-01-29 23:15:00,51.3,49.9,29.33,SW,234,2.0,2.0,95,0.25,,,0.04,Wunderground v.1.15,2013-01-30 05:15:00,
2013-01-29 23:24:00,50.7,49.3,29.33,SW,234,2.0,2.0,95,0.25,,,0.07,Wunderground v.1.15,2013-01-30 05:24:00,
2013-01-29 23:29:00,50.5,49.1,29.33,WSW,252,3.0,5.0,95,0.20,,,0.08,Wunderground v.1.15,2013-01-30 05:29:00,
2013-01-29 23:34:00,50.4,49.0,29.34,West,259,3.0,5.0,95,0.23,,,0.10,Wunderground v.1.15,2013-01-30 05:34:00,
2013-01-29 23:39:00,49.9,48.5,29.34,West,273,4.0,4.0,95,0.26,,,0.12,Wunderground v.1.15,2013-01-30 05:39:00,
2013-01-29 23:44:00,49.4,48.0,29.36,WNW,291,3.0,4.0,95,0.32,,,0.15,Wunderground v.1.15,2013-01-30 05:44:00,
2013-01-29 23:49:00,49.1,47.7,29.36,WNW,295,4.0,6.0,95,0.27,,,0.17,Wunderground v.1.15,2013-01-30 05:49:00,
2013-01-29 23:59:00,48.6,47.5,29.35,NW,317,5.0,7.0,96,0.24,,,0.21,Wunderground v.1.15,2013-01-30 05:59:00,